createdAt,value
2023-04-23T00:01:53.986Z,15.34
2023-04-23T00:04:34.388Z,15.45
2023-04-23T00:07:08.756Z,15.24
2023-04-23T00:09:37.360Z,15.13
2023-04-23T00:12:11.812Z,15.02
2023-04-23T00:14:40.634Z,15.16
2023-04-23T00:17:27.306Z,14.94
2023-04-23T00:19:56.120Z,14.89
2023-04-23T00:22:33.314Z,15.08
2023-04-23T00:25:07.495Z,14.95
2023-04-23T00:27:41.640Z,15.01
2023-04-23T00:30:16.858Z,14.99
2023-04-23T00:33:02.638Z,14.87
2023-04-23T00:35:34.003Z,14.85
2023-04-23T00:38:05.983Z,14.94
2023-04-23T00:40:38.221Z,14.91
2023-04-23T00:43:11.726Z,14.89
2023-04-23T00:45:41.285Z,14.86
2023-04-23T00:48:12.543Z,14.71
2023-04-23T00:50:43.830Z,14.81
2023-04-23T00:53:14.975Z,14.85
2023-04-23T00:55:48.188Z,14.70
2023-04-23T00:58:24.331Z,14.76
2023-04-23T01:03:46.525Z,14.79
2023-04-23T01:06:31.527Z,14.62
2023-04-23T01:09:09.100Z,14.57
2023-04-23T01:11:41.366Z,14.63
2023-04-23T01:14:11.566Z,14.75
2023-04-23T01:16:48.177Z,14.66
2023-04-23T01:19:31.402Z,14.60
2023-04-23T01:22:08.763Z,14.70
2023-04-23T01:24:41.422Z,14.55
2023-04-23T01:27:10.153Z,14.52
2023-04-23T01:29:42.656Z,14.67
2023-04-23T01:32:25.729Z,14.68
2023-04-23T01:34:56.981Z,14.56
2023-04-23T01:37:34.099Z,14.35
2023-04-23T01:40:15.225Z,14.53
2023-04-23T01:42:46.895Z,14.26
2023-04-23T01:45:20.639Z,14.54
2023-04-23T01:47:51.401Z,14.60
2023-04-23T01:50:23.304Z,14.57
2023-04-23T01:52:55.363Z,14.47
2023-04-23T01:55:30.682Z,14.40
2023-04-23T01:58:04.471Z,14.52
2023-04-23T02:00:33.390Z,14.52
2023-04-23T02:03:03.585Z,14.43
2023-04-23T02:05:37.361Z,14.36
2023-04-23T02:08:09.157Z,14.40
2023-04-23T02:10:42.075Z,14.59
2023-04-23T02:13:14.702Z,14.35
2023-04-23T02:15:51.200Z,14.36
2023-04-23T02:18:21.879Z,14.24
2023-04-23T02:20:50.417Z,14.32
2023-04-23T02:23:20.647Z,14.31
2023-04-23T02:25:52.603Z,14.22
2023-04-23T02:28:32.341Z,14.34
2023-04-23T02:31:01.230Z,14.33
2023-04-23T02:33:33.185Z,14.35
2023-04-23T02:36:04.860Z,14.07
2023-04-23T02:38:36.846Z,14.18
2023-04-23T02:41:16.462Z,14.22
2023-04-23T02:43:53.267Z,14.15
2023-04-23T02:46:22.584Z,14.13
2023-04-23T02:48:52.879Z,14.22
2023-04-23T02:51:23.790Z,14.24
2023-04-23T02:53:58.237Z,14.21
2023-04-23T02:56:28.675Z,14.13
2023-04-23T02:59:03.775Z,14.14
2023-04-23T03:01:32.268Z,14.01
2023-04-23T03:04:03.854Z,14.12
2023-04-23T03:06:35.860Z,13.92
2023-04-23T03:09:10.315Z,13.87
2023-04-23T03:11:43.099Z,14.01
2023-04-23T03:14:17.480Z,14.07
2023-04-23T03:16:54.792Z,13.90
2023-04-23T03:19:27.212Z,13.95
2023-04-23T03:21:58.046Z,13.79
2023-04-23T03:24:27.312Z,13.74
2023-04-23T03:26:59.298Z,13.57
2023-04-23T03:29:28.803Z,13.56
2023-04-23T03:32:11.419Z,13.62
2023-04-23T03:34:41.198Z,13.57
2023-04-23T03:37:12.575Z,13.54
2023-04-23T03:39:44.451Z,13.46
2023-04-23T03:42:15.483Z,13.54
2023-04-23T03:44:47.778Z,13.39
2023-04-23T03:47:18.230Z,13.61
2023-04-23T03:49:49.174Z,13.44
2023-04-23T03:52:23.223Z,13.33
2023-04-23T03:54:52.375Z,13.48
2023-04-23T03:57:30.656Z,13.56
2023-04-23T04:00:18.252Z,13.33
2023-04-23T04:02:54.865Z,13.29
2023-04-23T04:05:28.611Z,13.60
2023-04-23T04:07:59.425Z,13.42
2023-04-23T04:10:29.239Z,13.55
2023-04-23T04:13:03.786Z,13.51
2023-04-23T04:15:43.270Z,13.40
2023-04-23T04:18:12.975Z,13.22
2023-04-23T04:20:44.324Z,13.19
2023-04-23T04:23:15.874Z,13.30
2023-04-23T04:25:47.713Z,13.37
2023-04-23T04:28:22.962Z,13.17
2023-04-23T04:30:59.668Z,12.87
2023-04-23T04:33:33.404Z,13.06
2023-04-23T04:36:03.838Z,13.14
2023-04-23T04:38:32.331Z,13.23
2023-04-23T04:41:11.883Z,13.25
2023-04-23T04:43:56.430Z,13.00
2023-04-23T04:46:29.911Z,13.35
2023-04-23T04:48:59.258Z,13.55
2023-04-23T04:51:28.560Z,13.39
2023-04-23T04:54:00.882Z,13.27
2023-04-23T04:56:34.907Z,13.39
2023-04-23T04:59:15.993Z,13.49
2023-04-23T05:01:53.194Z,13.66
2023-04-23T05:04:21.350Z,13.43
2023-04-23T05:06:52.530Z,13.15
2023-04-23T05:09:24.134Z,13.45
2023-04-23T05:11:57.580Z,13.49
2023-04-23T05:14:30.739Z,13.62
2023-04-23T05:17:02.486Z,13.55
2023-04-23T05:19:34.675Z,13.59
2023-04-23T05:22:04.678Z,13.44
2023-04-23T05:24:34.100Z,13.70
2023-04-23T05:27:10.790Z,13.90
2023-04-23T05:29:52.056Z,13.86
2023-04-23T05:32:23.858Z,13.92
2023-04-23T05:34:53.965Z,13.81
2023-04-23T05:37:22.615Z,13.80
2023-04-23T05:39:54.773Z,13.85
2023-04-23T05:42:26.078Z,13.99
2023-04-23T05:44:56.796Z,13.87
2023-04-23T05:47:28.141Z,14.06
2023-04-23T05:49:58.372Z,13.89
2023-04-23T05:52:31.619Z,14.00
2023-04-23T05:55:04.069Z,14.12
2023-04-23T05:57:35.919Z,13.99
2023-04-23T06:00:14.073Z,14.04
2023-04-23T06:02:42.998Z,14.13
2023-04-23T06:05:16.193Z,14.30
2023-04-23T06:07:48.188Z,14.39
2023-04-23T06:10:24.232Z,14.41
2023-04-23T06:13:01.245Z,14.50
2023-04-23T06:15:32.918Z,14.63
2023-04-23T06:18:01.667Z,14.74
2023-04-23T06:20:34.218Z,14.72
2023-04-23T06:23:04.039Z,14.71
2023-04-23T06:25:34.881Z,14.85
2023-04-23T06:28:03.451Z,14.89
2023-04-23T06:30:44.568Z,15.01
2023-04-23T06:33:26.064Z,15.09
2023-04-23T06:35:56.904Z,15.12
2023-04-23T06:38:27.023Z,15.22
2023-04-23T06:40:57.279Z,15.07
2023-04-23T06:43:26.906Z,14.94
2023-04-23T06:46:23.143Z,15.22
2023-04-23T06:48:54.358Z,15.37
2023-04-23T06:51:23.678Z,15.44
2023-04-23T06:53:54.994Z,15.34
2023-04-23T06:56:23.283Z,15.52
2023-04-23T06:58:52.637Z,15.67
2023-04-23T07:01:26.665Z,15.79
2023-04-23T07:03:57.643Z,15.92
2023-04-23T07:06:29.476Z,15.80
2023-04-23T07:09:01.551Z,15.81
2023-04-23T07:11:34.334Z,15.94
2023-04-23T07:14:08.821Z,15.97
2023-04-23T07:16:45.475Z,15.95
2023-04-23T07:19:14.573Z,16.01
2023-04-23T07:21:48.397Z,16.02
2023-04-23T07:24:19.080Z,15.93
2023-04-23T07:26:50.793Z,16.10
2023-04-23T07:29:22.695Z,16.11
2023-04-23T07:32:06.263Z,16.31
2023-04-23T07:34:39.578Z,16.45
2023-04-23T07:37:12.089Z,16.67
2023-04-23T07:39:43.396Z,16.72
2023-04-23T07:42:16.631Z,16.81
2023-04-23T07:44:44.745Z,16.84
2023-04-23T07:47:15.699Z,16.89
2023-04-23T07:49:46.755Z,17.06
2023-04-23T07:52:17.582Z,17.08
2023-04-23T07:54:54.536Z,17.25
2023-04-23T07:57:31.679Z,17.26
2023-04-23T08:00:10.430Z,17.31
2023-04-23T08:02:45.896Z,17.35
2023-04-23T08:05:17.851Z,17.36
2023-04-23T08:07:53.947Z,17.48
2023-04-23T08:10:25.779Z,17.53
2023-04-23T08:12:54.835Z,17.71
2023-04-23T08:15:24.507Z,17.77
2023-04-23T08:17:54.364Z,17.89
2023-04-23T08:20:24.175Z,17.87
2023-04-23T08:22:54.076Z,18.08
2023-04-23T08:25:24.087Z,18.22
2023-04-23T08:27:54.888Z,18.33
2023-04-23T08:30:29.922Z,18.35
2023-04-23T08:33:06.129Z,18.53
2023-04-23T08:35:41.871Z,18.59
2023-04-23T08:38:12.565Z,18.68
2023-04-23T08:40:43.487Z,18.60
2023-04-23T08:43:18.936Z,18.47
2023-04-23T08:45:51.568Z,18.60
2023-04-23T08:48:25.331Z,18.68
2023-04-23T08:50:55.040Z,18.52
2023-04-23T08:53:28.040Z,18.74
2023-04-23T08:55:57.645Z,18.84
2023-04-23T08:58:28.852Z,18.92
2023-04-23T09:01:00.790Z,18.96
2023-04-23T09:03:34.534Z,18.90
2023-04-23T09:06:05.830Z,18.93
2023-04-23T09:08:44.758Z,19.06
2023-04-23T09:11:15.187Z,19.19
2023-04-23T09:13:46.388Z,19.44
2023-04-23T09:16:23.856Z,19.65
2023-04-23T09:18:58.886Z,19.63
2023-04-23T09:21:28.440Z,19.66
2023-04-23T09:24:01.927Z,19.36
2023-04-23T09:26:30.288Z,19.69
2023-04-23T09:28:59.651Z,19.83
2023-04-23T09:31:31.437Z,19.87
2023-04-23T09:34:01.013Z,19.84
2023-04-23T09:36:34.740Z,19.96
2023-04-23T09:39:06.446Z,20.03
2023-04-23T09:41:45.313Z,19.86
2023-04-23T09:44:23.487Z,19.97
2023-04-23T09:46:51.899Z,20.02
2023-04-23T09:49:32.908Z,19.98
2023-04-23T09:52:07.747Z,20.23
2023-04-23T09:54:37.062Z,20.18
2023-04-23T09:57:16.467Z,20.07
2023-04-23T09:59:51.293Z,20.31
2023-04-23T10:02:28.802Z,20.50
2023-04-23T10:05:21.762Z,20.34
2023-04-23T10:07:59.630Z,20.59
2023-04-23T10:10:30.050Z,20.66
2023-04-23T10:13:07.084Z,20.86
2023-04-23T10:15:38.086Z,20.94
2023-04-23T10:18:18.820Z,20.88
2023-04-23T10:20:55.771Z,21.02
2023-04-23T10:23:27.362Z,21.21
2023-04-23T10:25:59.153Z,21.32
2023-04-23T10:28:32.173Z,21.32
2023-04-23T10:31:02.620Z,21.47
2023-04-23T10:33:45.655Z,21.65
2023-04-23T10:36:38.599Z,21.97
2023-04-23T10:39:24.044Z,21.44
2023-04-23T10:42:02.379Z,21.50
2023-04-23T10:47:19.190Z,21.07
2023-04-23T10:49:55.581Z,21.01
2023-04-23T10:52:42.659Z,21.10
2023-04-23T10:55:23.678Z,21.57
2023-04-23T10:58:13.495Z,21.90
2023-04-23T11:00:51.070Z,22.00
2023-04-23T11:03:41.607Z,22.06
2023-04-23T11:09:09.328Z,22.27
2023-04-23T11:11:44.882Z,22.51
2023-04-23T11:14:28.308Z,22.67
2023-04-23T11:16:59.718Z,23.02
2023-04-23T11:19:31.416Z,22.92
2023-04-23T11:22:07.227Z,22.98
2023-04-23T11:24:42.310Z,22.97
2023-04-23T11:27:12.248Z,22.82
2023-04-23T11:29:43.483Z,22.68
2023-04-23T11:32:28.220Z,22.65
2023-04-23T11:35:00.575Z,22.82
2023-04-23T11:37:37.034Z,23.05
2023-04-23T11:40:18.605Z,23.41
2023-04-23T11:42:57.658Z,23.90
2023-04-23T11:45:36.260Z,24.18
2023-04-23T11:48:07.955Z,24.14
2023-04-23T11:50:41.927Z,24.12
2023-04-23T11:53:13.173Z,23.84
2023-04-23T11:55:44.295Z,23.93
2023-04-23T11:58:12.664Z,24.10
2023-04-23T12:00:47.050Z,24.24
2023-04-23T12:03:26.948Z,24.75
2023-04-23T12:06:01.156Z,24.61
2023-04-23T12:08:34.936Z,24.62
2023-04-23T12:11:08.742Z,24.45
2023-04-23T12:13:42.981Z,24.36
2023-04-23T12:16:12.289Z,24.21
2023-04-23T12:18:44.504Z,24.09
2023-04-23T12:21:20.966Z,23.84
2023-04-23T12:23:53.127Z,23.82
2023-04-23T12:26:27.321Z,24.00
2023-04-23T12:29:00.669Z,24.03
2023-04-23T12:31:32.555Z,24.00
2023-04-23T12:34:07.531Z,23.83
2023-04-23T12:36:43.345Z,23.72
2023-04-23T12:39:29.716Z,23.68
2023-04-23T12:42:08.853Z,23.72
2023-04-23T12:44:39.390Z,23.76
2023-04-23T12:47:14.325Z,23.93
2023-04-23T12:49:44.121Z,23.91
2023-04-23T12:52:14.035Z,23.90
2023-04-23T12:54:52.747Z,23.86
2023-04-23T12:57:28.053Z,23.96
2023-04-23T12:59:59.731Z,23.96
2023-04-23T13:02:30.441Z,24.02
2023-04-23T13:05:01.479Z,24.34
2023-04-23T13:07:30.247Z,24.16
2023-04-23T13:10:06.971Z,24.30
2023-04-23T13:12:48.261Z,24.52
2023-04-23T13:15:22.019Z,24.68
2023-04-23T13:17:51.650Z,24.78
2023-04-23T13:20:29.491Z,24.58
2023-04-23T13:23:02.993Z,24.64
2023-04-23T13:25:32.089Z,24.57
2023-04-23T13:28:10.804Z,24.71
2023-04-23T13:30:42.276Z,24.82
2023-04-23T13:33:10.658Z,24.84
2023-04-23T13:35:40.423Z,24.69
2023-04-23T13:38:09.641Z,24.46
2023-04-23T13:40:50.698Z,24.22
2023-04-23T13:43:22.442Z,23.96
2023-04-23T13:46:01.280Z,23.77
2023-04-23T13:48:33.082Z,23.59
2023-04-23T13:51:06.487Z,23.51
2023-04-23T13:53:43.646Z,23.38
2023-04-23T13:56:12.176Z,23.28
2023-04-23T13:58:51.772Z,23.27
2023-04-23T14:01:23.650Z,23.33
2023-04-23T14:04:00.882Z,23.18
2023-04-23T14:06:34.642Z,23.12
2023-04-23T14:09:14.009Z,23.14
2023-04-23T14:11:45.812Z,23.20
2023-04-23T14:14:21.002Z,23.41
2023-04-23T14:16:52.791Z,23.31
2023-04-23T14:19:30.024Z,23.16
2023-04-23T14:21:58.226Z,23.22
2023-04-23T14:24:30.095Z,23.21
2023-04-23T14:26:59.815Z,23.21
2023-04-23T14:29:38.962Z,23.31
2023-04-23T14:32:09.856Z,23.23
2023-04-23T14:34:41.686Z,23.18
2023-04-23T14:37:13.226Z,23.02
2023-04-23T14:39:42.723Z,22.94
2023-04-23T14:42:11.397Z,22.95
2023-04-23T14:44:47.582Z,22.91
2023-04-23T14:47:16.496Z,22.87
2023-04-23T14:49:46.208Z,22.88
2023-04-23T14:52:15.703Z,22.88
2023-04-23T14:54:46.457Z,22.82
2023-04-23T14:57:16.206Z,22.82
2023-04-23T14:59:50.478Z,22.87
2023-04-23T15:02:21.741Z,22.79
2023-04-23T15:04:52.233Z,22.65
2023-04-23T15:07:33.035Z,22.68
2023-04-23T15:10:08.424Z,22.64
2023-04-23T15:13:12.473Z,22.52
2023-04-23T15:15:45.738Z,22.64
2023-04-23T15:18:26.407Z,22.63
2023-04-23T15:20:58.577Z,22.69
2023-04-23T15:23:27.844Z,22.63
2023-04-23T15:25:58.665Z,22.71
2023-04-23T15:28:29.370Z,22.73
2023-04-23T15:31:13.238Z,22.78
2023-04-23T15:33:42.825Z,22.71
2023-04-23T15:36:14.381Z,22.68
2023-04-23T15:38:57.131Z,22.66
2023-04-23T15:41:27.154Z,22.67
2023-04-23T15:44:04.004Z,22.53
2023-04-23T15:46:34.703Z,22.51
2023-04-23T15:49:13.498Z,22.42
2023-04-23T15:51:45.124Z,22.34
2023-04-23T15:54:29.218Z,22.21
2023-04-23T15:57:01.902Z,22.23
2023-04-23T15:59:36.213Z,22.18
2023-04-23T16:02:09.997Z,22.08
2023-04-23T16:04:44.942Z,22.08
2023-04-23T16:07:17.318Z,22.06
2023-04-23T16:09:47.421Z,22.05
2023-04-23T16:12:23.893Z,22.01
2023-04-23T16:14:57.679Z,21.91
2023-04-23T16:17:32.622Z,21.91
2023-04-23T16:20:05.237Z,21.85
2023-04-23T16:22:37.278Z,21.85
2023-04-23T16:25:14.566Z,21.85
2023-04-23T16:27:46.933Z,21.79
2023-04-23T16:30:22.889Z,21.72
2023-04-23T16:33:05.297Z,21.67
2023-04-23T16:35:37.291Z,21.65
2023-04-23T16:38:12.946Z,21.61
2023-04-23T16:40:45.877Z,21.57
2023-04-23T16:43:23.495Z,21.51
2023-04-23T16:45:53.656Z,21.48
2023-04-23T16:48:33.931Z,21.40
2023-04-23T16:51:16.015Z,21.35
2023-04-23T16:53:47.559Z,21.32
2023-04-23T16:56:23.840Z,21.23
2023-04-23T16:58:55.213Z,21.14
2023-04-23T17:01:35.306Z,21.04
2023-04-23T17:04:11.270Z,21.03
2023-04-23T17:06:45.459Z,21.01
2023-04-23T17:09:19.919Z,20.95
2023-04-23T17:12:02.133Z,20.92
2023-04-23T17:14:40.183Z,20.97
2023-04-23T17:17:16.370Z,20.87
2023-04-23T17:19:50.588Z,20.81
2023-04-23T17:22:22.236Z,20.75
2023-04-23T17:24:53.436Z,20.75
2023-04-23T17:27:27.392Z,20.68
2023-04-23T17:30:05.999Z,20.68
2023-04-23T17:32:42.087Z,20.63
2023-04-23T17:35:12.902Z,20.63
2023-04-23T17:37:43.050Z,20.41
2023-04-23T17:40:26.679Z,20.10
2023-04-23T17:43:06.124Z,20.21
2023-04-23T17:45:36.560Z,19.90
2023-04-23T17:48:07.630Z,19.90
2023-04-23T17:50:42.357Z,19.92
2023-04-23T17:53:31.674Z,20.00
2023-04-23T17:56:07.458Z,19.76
2023-04-23T17:58:47.801Z,19.62
2023-04-23T18:01:31.639Z,19.81
2023-04-23T18:04:09.503Z,19.81
2023-04-23T18:06:55.748Z,19.82
2023-04-23T18:09:33.558Z,19.79
2023-04-23T18:12:15.199Z,19.81
2023-04-23T18:14:45.240Z,19.58
2023-04-23T18:17:17.764Z,19.76
2023-04-23T18:19:49.566Z,19.65
2023-04-23T18:22:26.864Z,19.55
2023-04-23T18:24:57.824Z,19.49
2023-04-23T18:27:34.559Z,19.52
2023-04-23T18:30:05.876Z,19.46
2023-04-23T18:32:52.880Z,19.25
2023-04-23T18:35:25.115Z,19.35
2023-04-23T18:38:07.273Z,19.20
2023-04-23T18:40:46.017Z,19.27
2023-04-23T18:43:17.188Z,19.25
2023-04-23T18:45:54.208Z,19.33
2023-04-23T18:48:43.678Z,19.24
2023-04-23T18:51:30.872Z,19.17
2023-04-23T18:54:22.617Z,19.17
2023-04-23T18:56:54.490Z,19.12
2023-04-23T18:59:33.152Z,19.13
2023-04-23T19:02:05.549Z,19.08
2023-04-23T19:04:36.156Z,19.06
2023-04-23T19:07:06.490Z,19.00
2023-04-23T19:09:37.847Z,19.00
2023-04-23T19:12:17.689Z,19.03
2023-04-23T19:15:00.061Z,19.00
2023-04-23T19:17:31.016Z,18.99
2023-04-23T19:20:11.973Z,18.98
2023-04-23T19:22:52.614Z,18.86
2023-04-23T19:25:36.785Z,18.79
2023-04-23T19:28:13.110Z,18.85
2023-04-23T19:30:43.808Z,18.85
2023-04-23T19:33:15.860Z,18.73
2023-04-23T19:35:50.526Z,18.83
2023-04-23T19:38:43.317Z,18.71
2023-04-23T19:41:30.398Z,18.57
2023-04-23T19:44:15.759Z,18.58
2023-04-23T19:46:45.389Z,18.55
2023-04-23T19:49:31.361Z,18.43
2023-04-23T19:52:11.397Z,18.52
2023-04-23T19:54:50.121Z,18.35
2023-04-23T19:57:27.084Z,18.35
2023-04-23T20:00:15.740Z,18.32
2023-04-23T20:02:48.205Z,18.35
2023-04-23T20:05:17.634Z,18.22
2023-04-23T20:07:50.005Z,18.29
2023-04-23T20:10:25.330Z,18.41
2023-04-23T20:13:08.156Z,18.28
2023-04-23T20:15:39.929Z,18.14
2023-04-23T20:18:09.976Z,18.20
2023-04-23T20:20:47.979Z,18.27
2023-04-23T20:23:21.890Z,18.24
2023-04-23T20:25:56.951Z,18.17
2023-04-23T20:28:28.026Z,18.21
2023-04-23T20:31:00.147Z,18.24
2023-04-23T20:33:31.958Z,18.17
2023-04-23T20:36:01.674Z,18.18
2023-04-23T20:38:33.376Z,18.19
2023-04-23T20:41:11.122Z,18.20
2023-04-23T20:43:49.090Z,18.09
2023-04-23T20:46:20.930Z,18.16
2023-04-23T20:49:04.051Z,18.22
2023-04-23T20:51:34.390Z,18.20
2023-04-23T20:54:06.916Z,18.20
2023-04-23T20:56:41.427Z,18.43
2023-04-23T20:59:23.320Z,18.26
2023-04-23T21:02:03.627Z,18.24
2023-04-23T21:04:32.908Z,18.12
2023-04-23T21:07:04.730Z,18.10
2023-04-23T21:09:41.799Z,18.07
2023-04-23T21:12:11.639Z,18.06
2023-04-23T21:14:49.996Z,18.04
2023-04-23T21:17:24.082Z,18.04
2023-04-23T21:19:54.341Z,18.04
2023-04-23T21:22:39.734Z,17.98
2023-04-23T21:25:13.644Z,17.98
2023-04-23T21:27:46.045Z,18.03
2023-04-23T21:30:27.818Z,17.88
2023-04-23T21:33:00.786Z,17.90
2023-04-23T21:35:32.395Z,17.86
2023-04-23T21:38:03.851Z,17.86
2023-04-23T21:40:34.419Z,17.83
2023-04-23T21:43:04.966Z,17.89
2023-04-23T21:45:40.125Z,17.87
2023-04-23T21:48:09.387Z,17.98
2023-04-23T21:50:43.292Z,17.81
2023-04-23T21:53:13.916Z,17.75
2023-04-23T21:55:44.830Z,17.56
2023-04-23T21:58:18.471Z,17.70
2023-04-23T22:00:51.135Z,17.62
2023-04-23T22:03:30.206Z,17.59
2023-04-23T22:06:10.777Z,17.56
2023-04-23T22:08:41.559Z,17.54
2023-04-23T22:11:19.083Z,17.20
2023-04-23T22:13:51.053Z,17.38
2023-04-23T22:16:29.378Z,17.46
2023-04-23T22:19:02.478Z,17.38
2023-04-23T22:21:33.675Z,17.53
2023-04-23T22:24:04.155Z,17.36
2023-04-23T22:26:34.057Z,17.35
2023-04-23T22:29:04.815Z,17.41
2023-04-23T22:31:48.018Z,17.26
2023-04-23T22:34:20.886Z,17.28
2023-04-23T22:36:52.385Z,17.39
2023-04-23T22:39:22.795Z,17.23
2023-04-23T22:41:51.989Z,17.02
2023-04-23T22:44:23.592Z,17.02
2023-04-23T22:47:04.084Z,17.11
2023-04-23T22:49:33.203Z,17.09
2023-04-23T22:52:10.870Z,16.81
2023-04-23T22:54:44.313Z,16.91
2023-04-23T22:57:30.088Z,16.93
2023-04-23T23:00:03.668Z,16.88
2023-04-23T23:02:49.022Z,16.77
2023-04-23T23:05:26.753Z,16.73
2023-04-23T23:08:00.644Z,16.69
2023-04-23T23:10:39.395Z,16.49
2023-04-23T23:13:08.861Z,16.51
2023-04-23T23:15:45.379Z,16.68
2023-04-23T23:18:24.883Z,16.62
2023-04-23T23:20:56.109Z,16.67
2023-04-23T23:23:28.374Z,16.56
2023-04-23T23:26:05.358Z,16.61
2023-04-23T23:28:33.496Z,16.64
2023-04-23T23:31:10.543Z,16.63
2023-04-23T23:33:49.891Z,16.45
2023-04-23T23:36:20.591Z,16.50
2023-04-23T23:38:52.870Z,16.51
2023-04-23T23:41:30.400Z,16.55
2023-04-23T23:44:03.673Z,16.63
2023-04-23T23:46:35.473Z,16.58
2023-04-23T23:49:08.486Z,16.52
2023-04-23T23:51:44.969Z,16.53
2023-04-23T23:54:27.272Z,16.44
2023-04-23T23:56:59.609Z,16.30
2023-04-23T23:59:28.650Z,16.42
